Time;durP1;ratioP1;P1;durP2;ratioP2;P2;SDS_P1;SDS_P2;PMS_P1;PMS_P2;Temp;Humidity;BMP_temperature;BMP_pressure;BME280_temperature;BME280_humidity;BME280_pressure;Samples;Min_cycle;Max_cycle;Signal;HPM_P1;HPM_P2
2023/06/01 00:02:14;;;;;;;0.50;0.40;;;15.40;99.90;;;;;;5036103;28;20506;-81
2023/06/01 00:04:41;;;;;;;0.50;0.40;;;15.30;99.90;;;;;;5036284;28;20450;-81
2023/06/01 00:07:08;;;;;;;1.37;0.90;;;15.30;99.90;;;;;;5036258;28;20552;-81
2023/06/01 00:09:35;;;;;;;0.50;0.40;;;15.20;99.90;;;;;;5035999;28;20447;-81
2023/06/01 00:12:02;;;;;;;0.50;0.40;;;15.20;99.90;;;;;;5036866;28;20509;-80
2023/06/01 00:14:29;;;;;;;0.50;0.40;;;15.20;99.90;;;;;;5036077;28;20450;-81
2023/06/01 00:16:58;;;;;;;0.60;0.50;;;15.10;99.90;;;;;;5027933;28;20548;-81
2023/06/01 00:19:25;;;;;;;0.50;0.40;;;15.00;99.90;;;;;;5036009;28;20449;-81
2023/06/01 00:21:53;;;;;;;0.50;0.40;;;15.00;99.90;;;;;;5036089;28;21072;-81
2023/06/01 00:24:20;;;;;;;0.50;0.40;;;14.90;99.90;;;;;;5035741;28;20536;-81
2023/06/01 00:26:47;;;;;;;7.20;2.87;;;14.90;99.90;;;;;;5035772;28;20472;-81
2023/06/01 00:29:14;;;;;;;0.50;0.40;;;14.90;99.90;;;;;;5039105;28;20446;-80
2023/06/01 00:31:41;;;;;;;0.50;0.40;;;14.80;99.90;;;;;;5042649;28;20860;-80
2023/06/01 00:34:09;;;;;;;0.50;0.40;;;14.70;99.90;;;;;;5043448;28;20535;-81
2023/06/01 00:36:36;;;;;;;0.50;0.40;;;14.70;99.90;;;;;;5041932;28;20561;-81
2023/06/01 00:39:03;;;;;;;3.10;2.30;;;14.60;99.90;;;;;;5035739;28;20464;-81
2023/06/01 00:41:30;;;;;;;0.60;0.60;;;14.60;99.90;;;;;;5036129;28;20464;-81
2023/06/01 00:43:57;;;;;;;0.50;0.40;;;14.50;99.90;;;;;;5036112;28;20826;-81
2023/06/01 00:46:24;;;;;;;0.50;0.37;;;14.50;99.90;;;;;;5035405;28;20480;-81
2023/06/01 00:48:51;;;;;;;0.50;0.40;;;14.40;99.90;;;;;;5034967;28;20481;-80
2023/06/01 00:51:20;;;;;;;0.50;0.40;;;14.40;99.90;;;;;;5036037;28;20446;-81
2023/06/01 00:53:47;;;;;;;0.70;0.70;;;14.30;99.90;;;;;;5034798;28;20971;-81
2023/06/01 00:56:14;;;;;;;0.50;0.40;;;14.30;99.90;;;;;;5035470;28;20470;-81
2023/06/01 00:58:42;;;;;;;0.50;0.40;;;14.30;99.90;;;;;;5035551;28;20446;-81
2023/06/01 01:01:18;;;;;;;0.50;0.40;;;14.30;99.90;;;;;;5035257;28;20434;-81
2023/06/01 01:03:46;;;;;;;0.50;0.40;;;14.30;99.90;;;;;;5034485;28;20480;-81
2023/06/01 01:06:22;;;;;;;0.50;0.40;;;14.20;99.90;;;;;;5035450;28;20512;-81
2023/06/01 01:08:59;;;;;;;0.50;0.40;;;14.10;99.90;;;;;;5034866;28;20480;-81
2023/06/01 01:11:30;;;;;;;0.50;0.40;;;14.10;99.90;;;;;;5042979;28;20460;-80
2023/06/01 01:14:02;;;;;;;0.50;0.40;;;14.00;99.90;;;;;;5042921;28;20438;-80
2023/06/01 01:16:33;;;;;;;0.50;0.40;;;13.90;99.90;;;;;;5044182;28;20458;-80
2023/06/01 01:19:10;;;;;;;0.50;0.40;;;13.90;99.90;;;;;;5043939;28;20442;-80
2023/06/01 01:21:47;;;;;;;0.50;0.40;;;13.80;99.90;;;;;;5038863;28;20540;-80
2023/06/01 01:24:32;;;;;;;0.50;0.40;;;13.70;99.90;;;;;;5034960;28;20477;-81
2023/06/01 01:27:11;;;;;;;0.50;0.40;;;13.60;99.90;;;;;;5034730;28;20461;-80
2023/06/01 01:29:41;;;;;;;0.50;0.40;;;13.60;99.90;;;;;;5034802;28;20942;-80
2023/06/01 01:32:09;;;;;;;0.50;0.40;;;13.50;99.90;;;;;;5035280;28;20959;-81
2023/06/01 01:34:38;;;;;;;0.50;0.40;;;13.40;99.90;;;;;;5034399;28;20446;-79
2023/06/01 01:37:05;;;;;;;0.50;0.40;;;13.40;99.90;;;;;;5034907;28;20485;-80
2023/06/01 01:39:32;;;;;;;0.50;0.40;;;13.40;99.90;;;;;;5034604;28;20441;-81
2023/06/01 01:41:59;;;;;;;0.50;0.40;;;13.30;99.90;;;;;;5034879;28;20466;-80
2023/06/01 01:44:26;;;;;;;0.50;0.40;;;13.30;99.90;;;;;;5034613;28;20521;-80
2023/06/01 01:47:04;;;;;;;0.70;0.70;;;13.20;99.90;;;;;;5034506;28;21059;-81
2023/06/01 01:49:38;;;;;;;0.50;0.40;;;13.20;99.90;;;;;;5034551;28;21014;-80
2023/06/01 01:52:09;;;;;;;0.50;0.40;;;13.20;99.90;;;;;;5027630;28;20449;-81
2023/06/01 01:54:38;;;;;;;0.50;0.40;;;13.10;99.90;;;;;;5034949;28;20540;-81
2023/06/01 01:57:06;;;;;;;0.50;0.40;;;13.10;99.90;;;;;;5026839;28;20552;-80
2023/06/01 01:59:33;;;;;;;0.80;0.80;;;13.00;99.90;;;;;;5034612;28;20533;-81
2023/06/01 02:02:02;;;;;;;0.50;0.40;;;13.00;99.90;;;;;;5034452;28;20442;-80
2023/06/01 02:04:30;;;;;;;0.50;0.40;;;13.00;99.90;;;;;;5034007;28;20513;-80
2023/06/01 02:06:57;;;;;;;0.50;0.40;;;13.00;99.90;;;;;;5034670;28;20565;-80
2023/06/01 02:09:23;;;;;;;0.50;0.40;;;12.90;99.90;;;;;;5034899;28;20289;-81
2023/06/01 02:11:50;;;;;;;14.50;13.73;;;12.90;99.90;;;;;;5034219;28;20446;-80
2023/06/01 02:14:17;;;;;;;0.50;0.50;;;12.90;99.90;;;;;;5034430;28;20644;-81
2023/06/01 02:16:45;;;;;;;0.50;0.40;;;12.90;99.90;;;;;;5033861;28;20226;-82
2023/06/01 02:19:15;;;;;;;0.50;0.40;;;12.80;99.90;;;;;;5034499;28;20504;-82
2023/06/01 02:21:42;;;;;;;0.50;0.40;;;12.80;99.90;;;;;;5033951;28;20465;-81
2023/06/01 02:24:09;;;;;;;0.50;0.40;;;12.70;99.90;;;;;;5034203;28;20477;-82
2023/06/01 02:26:36;;;;;;;0.50;0.40;;;12.70;99.90;;;;;;5033932;28;20470;-82
2023/06/01 02:29:04;;;;;;;0.70;0.70;;;12.60;99.90;;;;;;5033920;28;20191;-82
2023/06/01 02:31:31;;;;;;;1.55;1.45;;;12.60;99.90;;;;;;5034480;28;20207;-82
2023/06/01 02:33:58;;;;;;;0.50;0.40;;;12.50;99.90;;;;;;5033876;28;20197;-82
2023/06/01 02:36:28;;;;;;;0.65;0.65;;;12.40;99.90;;;;;;5035686;28;20223;-80
2023/06/01 02:38:54;;;;;;;0.50;0.40;;;12.30;99.90;;;;;;5034400;28;20253;-82
2023/06/01 02:41:21;;;;;;;0.50;0.47;;;12.30;99.90;;;;;;5034431;28;20452;-82
2023/06/01 02:43:50;;;;;;;5.47;1.90;;;12.20;99.90;;;;;;5033522;28;20474;-82
2023/06/01 02:46:17;;;;;;;0.50;0.40;;;12.20;99.90;;;;;;5033841;28;20277;-82
2023/06/01 02:48:44;;;;;;;0.85;0.85;;;12.10;99.90;;;;;;5034045;28;20210;-82
2023/06/01 02:51:10;;;;;;;1.00;0.90;;;12.00;99.90;;;;;;5033824;28;20209;-83
2023/06/01 02:53:40;;;;;;;1.88;1.77;;;12.00;99.90;;;;;;5034090;28;20287;-83
2023/06/01 02:56:07;;;;;;;0.80;0.70;;;11.90;99.90;;;;;;5025644;28;20226;-81
2023/06/01 02:58:34;;;;;;;2.83;1.38;;;11.80;99.90;;;;;;5034170;28;20670;-80
2023/06/01 03:01:00;;;;;;;0.60;0.60;;;11.80;99.90;;;;;;5039691;28;20226;-79
2023/06/01 03:03:28;;;;;;;0.50;0.40;;;11.80;99.90;;;;;;5046194;28;20283;-80
2023/06/01 03:05:55;;;;;;;1.30;1.30;;;11.80;99.90;;;;;;5046464;28;20238;-80
2023/06/01 03:08:24;;;;;;;3.83;3.63;;;11.90;99.90;;;;;;5047095;28;20210;-79
2023/06/01 03:11:10;;;;;;;0.60;0.60;;;12.00;99.90;;;;;;5046293;28;20266;-80
2023/06/01 03:13:36;;;;;;;0.50;0.40;;;12.00;99.90;;;;;;5034810;28;20627;-81
2023/06/01 03:16:03;;;;;;;0.97;0.97;;;12.10;99.90;;;;;;5034145;28;20215;-80
2023/06/01 03:18:30;;;;;;;2.10;2.00;;;12.20;99.90;;;;;;5034325;28;20444;-80
2023/06/01 03:20:57;;;;;;;0.70;0.70;;;12.20;99.90;;;;;;5034156;28;20461;-80
2023/06/01 03:23:24;;;;;;;0.60;0.60;;;12.10;99.90;;;;;;5034166;28;20856;-80
2023/06/01 03:25:51;;;;;;;0.50;0.40;;;12.20;99.90;;;;;;5033440;28;20229;-80
2023/06/01 03:28:19;;;;;;;0.50;0.40;;;12.20;99.90;;;;;;5036452;28;20199;-80
2023/06/01 03:30:46;;;;;;;1.47;0.80;;;12.20;99.90;;;;;;5037252;28;20517;-80
2023/06/01 03:33:13;;;;;;;0.50;0.40;;;12.30;99.90;;;;;;5038107;28;20473;-81
2023/06/01 03:35:40;;;;;;;4.73;3.93;;;12.20;99.90;;;;;;5036701;28;20219;-81
2023/06/01 03:38:07;;;;;;;2.30;2.20;;;12.30;99.90;;;;;;5037450;28;20452;-80
2023/06/01 03:40:34;;;;;;;1.00;1.00;;;12.30;99.90;;;;;;5037909;28;20803;-80
2023/06/01 03:43:02;;;;;;;3.43;1.47;;;12.30;99.90;;;;;;5037293;28;21006;-80
2023/06/01 03:45:30;;;;;;;6.60;5.07;;;12.30;99.90;;;;;;5036725;28;20465;-80
2023/06/01 03:47:57;;;;;;;0.50;0.40;;;12.30;99.90;;;;;;5086412;22;20482;-77
2023/06/01 03:50:24;;;;;;;0.50;0.40;;;12.20;99.90;;;;;;5029485;28;20452;-81
2023/06/01 03:52:50;;;;;;;7.80;2.10;;;12.30;99.90;;;;;;5037603;28;20543;-83
2023/06/01 03:55:17;;;;;;;0.50;0.40;;;12.30;99.90;;;;;;5037281;28;20454;-84
2023/06/01 03:57:44;;;;;;;0.85;0.85;;;12.20;99.90;;;;;;5037144;28;20565;-82
2023/06/01 04:00:18;;;;;;;0.70;0.70;;;12.20;99.90;;;;;;5026022;28;20206;-83
2023/06/01 04:02:51;;;;;;;0.50;0.40;;;12.20;99.90;;;;;;5025680;28;20445;-82
2023/06/01 04:05:19;;;;;;;0.50;0.40;;;12.20;99.90;;;;;;5022056;28;20578;-83
2023/06/01 04:07:46;;;;;;;1.47;1.37;;;12.20;99.90;;;;;;5028684;28;20465;-81
2023/06/01 04:10:13;;;;;;;7.93;5.10;;;12.10;99.90;;;;;;5026423;28;20450;-84
2023/06/01 04:12:42;;;;;;;2.55;2.45;;;12.10;99.90;;;;;;5025412;28;20959;-83
2023/06/01 04:15:11;;;;;;;0.90;0.90;;;12.10;99.90;;;;;;5033245;28;20188;-83
2023/06/01 04:17:38;;;;;;;1.75;1.65;;;12.10;99.90;;;;;;5025441;28;20254;-84
2023/06/01 04:20:10;;;;;;;0.50;0.40;;;12.00;99.90;;;;;;5027900;28;20254;-84
2023/06/01 04:22:37;;;;;;;3.67;3.47;;;12.00;99.90;;;;;;5029477;28;20226;-82
2023/06/01 04:25:07;;;;;;;1.60;1.50;;;12.00;99.90;;;;;;5024607;28;20717;-82
2023/06/01 04:27:36;;;;;;;1.30;1.20;;;12.00;99.90;;;;;;5030294;28;20496;-81
2023/06/01 04:30:03;;;;;;;1.85;1.75;;;12.10;99.90;;;;;;5021328;28;20495;-80
2023/06/01 04:32:31;;;;;;;2.35;2.25;;;12.10;99.90;;;;;;5019664;28;20200;-81
2023/06/01 04:34:59;;;;;;;0.98;0.98;;;12.00;99.90;;;;;;5027965;28;20200;-81
2023/06/01 04:37:29;;;;;;;0.50;0.40;;;12.10;99.90;;;;;;5032070;28;20614;-81
2023/06/01 04:39:56;;;;;;;0.70;0.70;;;12.10;99.90;;;;;;5032592;28;20570;-79
2023/06/01 04:42:23;;;;;;;3.30;3.10;;;12.10;99.90;;;;;;5031521;28;20199;-81
2023/06/01 04:44:51;;;;;;;1.02;0.93;;;12.10;99.90;;;;;;5030729;28;20474;-79
2023/06/01 04:47:20;;;;;;;0.50;0.40;;;12.10;99.90;;;;;;5029634;28;20251;-79
2023/06/01 04:49:47;;;;;;;1.07;1.07;;;12.10;99.90;;;;;;5028708;28;20454;-79
2023/06/01 04:52:14;;;;;;;1.03;1.03;;;12.10;99.90;;;;;;5033815;28;20438;-82
2023/06/01 04:54:42;;;;;;;0.50;0.40;;;12.10;99.90;;;;;;5036105;28;20460;-81
2023/06/01 04:57:09;;;;;;;2.05;1.30;;;12.00;99.90;;;;;;5025564;28;20463;-82
2023/06/01 04:59:36;;;;;;;0.50;0.40;;;12.10;99.90;;;;;;5024728;28;20226;-82
2023/06/01 05:02:02;;;;;;;0.50;0.40;;;12.00;99.90;;;;;;5027724;28;20200;-81
2023/06/01 05:04:29;;;;;;;0.70;0.70;;;12.10;99.90;;;;;;5031434;28;21021;-82
2023/06/01 05:06:56;;;;;;;0.50;0.40;;;12.10;99.90;;;;;;5027688;28;20863;-79
2023/06/01 05:09:23;;;;;;;0.50;0.40;;;12.10;99.90;;;;;;5031273;28;20464;-78
2023/06/01 05:11:51;;;;;;;0.50;0.40;;;12.20;99.90;;;;;;5033394;28;20445;-81
2023/06/01 05:14:18;;;;;;;0.50;0.40;;;12.30;99.90;;;;;;5028408;28;20435;-81
2023/06/01 05:16:45;;;;;;;0.50;0.40;;;12.30;99.90;;;;;;5029981;28;20310;-84
2023/06/01 05:19:12;;;;;;;0.60;0.60;;;12.40;99.90;;;;;;5039328;28;20530;-80
2023/06/01 05:21:40;;;;;;;0.50;0.40;;;12.40;99.90;;;;;;5033249;28;20456;-81
2023/06/01 05:24:07;;;;;;;1.37;1.37;;;12.40;99.90;;;;;;5030655;28;20492;-81
2023/06/01 05:26:34;;;;;;;0.50;0.40;;;12.50;99.90;;;;;;5023089;28;20442;-80
2023/06/01 05:29:03;;;;;;;0.60;0.60;;;12.50;99.90;;;;;;5032869;28;20462;-82
2023/06/01 05:31:30;;;;;;;0.60;0.40;;;12.50;99.90;;;;;;5037540;28;20495;-81
2023/06/01 05:33:57;;;;;;;0.50;0.40;;;12.60;99.90;;;;;;5033672;28;20920;-81
2023/06/01 05:36:24;;;;;;;1.40;1.33;;;12.70;99.90;;;;;;5028832;28;20457;-84
2023/06/01 05:38:51;;;;;;;1.17;1.07;;;12.80;99.90;;;;;;5038869;28;20576;-79
2023/06/01 05:41:17;;;;;;;0.70;0.60;;;12.90;99.90;;;;;;5040674;28;20457;-84
2023/06/01 05:43:44;;;;;;;0.50;0.40;;;12.90;99.90;;;;;;5036390;28;20479;-82
2023/06/01 05:46:12;;;;;;;0.77;0.77;;;13.00;99.90;;;;;;5034524;28;20450;-83
2023/06/01 05:48:39;;;;;;;0.50;0.40;;;12.90;99.90;;;;;;5023352;28;20475;-84
2023/06/01 05:51:06;;;;;;;1.37;1.27;;;12.90;99.90;;;;;;5023795;28;20436;-85
2023/06/01 05:53:32;;;;;;;12.03;1.97;;;12.90;99.90;;;;;;5032309;28;20440;-85
2023/06/01 05:55:59;;;;;;;0.90;0.90;;;12.90;99.90;;;;;;5042679;28;20441;-85
2023/06/01 05:58:26;;;;;;;0.50;0.40;;;12.90;99.90;;;;;;5042117;28;20454;-84
2023/06/01 06:00:53;;;;;;;0.90;0.90;;;13.10;99.90;;;;;;5033531;28;20461;-84
2023/06/01 06:03:22;;;;;;;0.50;0.40;;;13.20;99.90;;;;;;5029514;28;20450;-85
2023/06/01 06:05:49;;;;;;;0.83;0.83;;;13.30;99.90;;;;;;5028632;28;20514;-85
2023/06/01 06:08:16;;;;;;;0.50;0.40;;;13.30;99.90;;;;;;5031692;28;20968;-85
2023/06/01 06:10:43;;;;;;;0.90;0.90;;;13.40;99.90;;;;;;5031933;28;20445;-84
2023/06/01 06:13:10;;;;;;;0.50;0.40;;;13.50;99.90;;;;;;5028972;28;20442;-83
2023/06/01 06:15:37;;;;;;;2.20;2.10;;;13.50;99.90;;;;;;5028287;28;20439;-83
2023/06/01 06:18:04;;;;;;;2.00;1.90;;;13.70;99.90;;;;;;5031836;28;20458;-83
2023/06/01 06:20:32;;;;;;;0.67;0.67;;;13.90;99.90;;;;;;5034507;28;20445;-84
2023/06/01 06:22:59;;;;;;;0.57;0.40;;;14.00;99.90;;;;;;5034177;28;20442;-82
2023/06/01 06:25:26;;;;;;;1.47;1.30;;;14.20;99.90;;;;;;5027405;28;20473;-85
2023/06/01 06:27:52;;;;;;;0.80;0.80;;;14.50;99.90;;;;;;5041973;28;20526;-84
2023/06/01 06:30:19;;;;;;;4.93;4.50;;;14.50;99.90;;;;;;5032147;28;20441;-83
2023/06/01 06:32:46;;;;;;;4.40;1.53;;;14.60;99.90;;;;;;5032837;28;20438;-84
2023/06/01 06:35:13;;;;;;;1.00;0.87;;;14.70;99.90;;;;;;5029577;28;20439;-83
2023/06/01 06:37:43;;;;;;;1.60;1.50;;;14.70;99.90;;;;;;5028265;28;20454;-83
2023/06/01 06:40:11;;;;;;;0.60;0.60;;;14.90;99.90;;;;;;5029724;28;20442;-84
2023/06/01 06:42:37;;;;;;;1.10;1.00;;;15.20;99.90;;;;;;5028785;28;20430;-82
2023/06/01 06:45:05;;;;;;;0.50;0.40;;;15.40;99.90;;;;;;5026190;28;20486;-83
2023/06/01 06:47:32;;;;;;;3.03;1.43;;;15.40;99.90;;;;;;5024073;28;20497;-83
2023/06/01 06:49:59;;;;;;;1.10;1.10;;;15.60;99.90;;;;;;5024321;28;20449;-82
2023/06/01 06:52:26;;;;;;;1.13;1.10;;;15.50;99.90;;;;;;5023687;28;20445;-84
2023/06/01 06:54:54;;;;;;;1.00;0.70;;;15.50;99.90;;;;;;5025963;28;20431;-82
2023/06/01 06:57:21;;;;;;;0.50;0.40;;;15.50;99.90;;;;;;5018309;28;20549;-81
2023/06/01 06:59:47;;;;;;;1.33;1.23;;;15.60;99.90;;;;;;5025544;28;20439;-82
2023/06/01 07:02:14;;;;;;;1.10;1.03;;;15.70;99.90;;;;;;5034060;28;20976;-81
2023/06/01 07:04:41;;;;;;;0.80;0.80;;;15.70;99.90;;;;;;5029718;28;20474;-80
2023/06/01 07:07:08;;;;;;;4.10;2.83;;;16.00;99.90;;;;;;5033374;28;20450;-82
2023/06/01 07:09:35;;;;;;;1.80;1.70;;;16.30;99.90;;;;;;5035010;28;20442;-81
2023/06/01 07:12:03;;;;;;;0.70;0.60;;;17.30;99.90;;;;;;5030627;28;20437;-82
2023/06/01 07:14:30;;;;;;;0.93;0.93;;;17.80;99.90;;;;;;5031771;28;20441;-80
2023/06/01 07:16:56;;;;;;;0.93;0.83;;;18.40;99.90;;;;;;5030811;28;20435;-82
2023/06/01 07:19:23;;;;;;;0.53;0.40;;;19.00;99.90;;;;;;5031971;28;20541;-83
2023/06/01 07:21:50;;;;;;;0.50;0.30;;;19.20;99.90;;;;;;5030331;28;20529;-84
2023/06/01 07:24:19;;;;;;;2.13;1.47;;;20.20;99.90;;;;;;5031149;28;20492;-79
2023/06/01 07:26:46;;;;;;;0.83;0.83;;;21.00;99.90;;;;;;5032220;28;20818;-82
2023/06/01 07:29:14;;;;;;;2.70;2.50;;;21.00;99.90;;;;;;5028087;28;20477;-79
2023/06/01 07:31:41;;;;;;;1.50;1.03;;;21.00;99.90;;;;;;5028790;28;20446;-78
2023/06/01 07:34:08;;;;;;;2.03;1.90;;;20.50;99.20;;;;;;5027040;28;20438;-79
2023/06/01 07:36:36;;;;;;;0.50;0.40;;;20.10;99.90;;;;;;5028443;28;20489;-81
2023/06/01 07:39:05;;;;;;;0.60;0.47;;;19.50;99.90;;;;;;5028585;28;20645;-82
2023/06/01 07:41:32;;;;;;;5.03;2.30;;;19.40;99.90;;;;;;5030967;28;20541;-81
2023/06/01 07:43:59;;;;;;;3.63;2.70;;;19.50;99.90;;;;;;5030007;28;20529;-79
2023/06/01 07:46:28;;;;;;;3.50;2.30;;;19.60;99.90;;;;;;5027188;28;20945;-81
2023/06/01 07:48:55;;;;;;;3.37;3.13;;;20.30;99.90;;;;;;5029647;28;20483;-83
2023/06/01 07:51:21;;;;;;;0.50;0.30;;;20.80;99.90;;;;;;5033472;28;20504;-81
2023/06/01 07:53:49;;;;;;;0.50;0.33;;;21.50;99.90;;;;;;5033338;28;20530;-82
2023/06/01 07:56:15;;;;;;;0.70;0.70;;;22.30;98.40;;;;;;5031832;28;20501;-81
2023/06/01 07:58:44;;;;;;;3.10;2.80;;;22.70;99.90;;;;;;5029526;28;20842;-82
2023/06/01 08:01:11;;;;;;;1.50;1.40;;;22.70;99.90;;;;;;5029101;28;20497;-81
2023/06/01 08:03:43;;;;;;;1.57;1.47;;;22.90;99.50;;;;;;5031036;28;20476;-81
2023/06/01 08:06:11;;;;;;;1.03;0.93;;;23.10;94.50;;;;;;5034937;28;20638;-79
2023/06/01 08:08:38;;;;;;;1.77;1.47;;;23.20;95.40;;;;;;5035507;28;20477;-81
2023/06/01 08:11:05;;;;;;;1.07;1.07;;;23.00;97.60;;;;;;5028858;28;20578;-80
2023/06/01 08:13:35;;;;;;;5.17;4.73;;;23.10;96.30;;;;;;5031341;28;20442;-84
2023/06/01 08:16:02;;;;;;;5.20;4.20;;;23.30;92.30;;;;;;5031876;28;20445;-80
2023/06/01 08:18:29;;;;;;;2.60;1.13;;;22.90;91.60;;;;;;5029493;28;20462;-81
2023/06/01 08:21:00;;;;;;;2.10;0.97;;;22.80;91.40;;;;;;5031132;28;20459;-79
2023/06/01 08:23:27;;;;;;;1.73;1.63;;;22.80;91.00;;;;;;5036787;28;20443;-80
2023/06/01 08:25:53;;;;;;;1.27;1.17;;;23.00;90.60;;;;;;5033239;28;20487;-78
2023/06/01 08:28:20;;;;;;;0.60;0.60;;;23.10;92.50;;;;;;5025954;28;20459;-80
2023/06/01 08:30:47;;;;;;;3.80;1.27;;;23.30;91.10;;;;;;5031316;28;20449;-81
2023/06/01 08:33:15;;;;;;;0.63;0.60;;;23.60;84.00;;;;;;5026526;28;20818;-79
2023/06/01 08:35:41;;;;;;;0.77;0.77;;;23.50;80.40;;;;;;5026244;28;20450;-79
2023/06/01 08:38:10;;;;;;;1.23;1.13;;;23.40;85.30;;;;;;5028329;28;20470;-82
2023/06/01 08:40:37;;;;;;;1.07;1.07;;;23.90;89.40;;;;;;5026824;28;20482;-82
2023/06/01 08:43:13;;;;;;;1.90;0.80;;;24.70;83.10;;;;;;5029020;28;20500;-83
2023/06/01 08:45:42;;;;;;;0.87;0.83;;;25.30;79.10;;;;;;5031244;28;20485;-84
2023/06/01 08:48:09;;;;;;;0.70;0.70;;;25.30;78.00;;;;;;5029716;28;20462;-82
2023/06/01 08:50:37;;;;;;;0.50;0.40;;;24.90;71.70;;;;;;5027350;28;20451;-81
2023/06/01 08:53:05;;;;;;;1.37;0.87;;;24.50;76.70;;;;;;5027387;28;20447;-80
2023/06/01 08:55:33;;;;;;;0.60;0.50;;;24.00;73.90;;;;;;5031262;28;20434;-81
2023/06/01 08:58:01;;;;;;;0.50;0.30;;;24.40;78.30;;;;;;5030309;28;20474;-83
2023/06/01 09:00:30;;;;;;;2.00;1.90;;;25.20;79.10;;;;;;5027435;28;20458;-81
2023/06/01 09:02:57;;;;;;;0.50;0.40;;;25.40;75.40;;;;;;5026650;28;20788;-82
2023/06/01 09:05:24;;;;;;;1.40;1.30;;;26.10;76.10;;;;;;5029218;28;20500;-83
2023/06/01 09:07:51;;;;;;;1.50;1.40;;;26.40;71.40;;;;;;5030251;28;20462;-81
2023/06/01 09:10:24;;;;;;;1.73;1.33;;;26.60;70.30;;;;;;5028428;28;20826;-82
2023/06/01 09:12:56;;;;;;;1.60;1.50;;;27.10;70.50;;;;;;5027334;28;20931;-82
2023/06/01 09:15:25;;;;;;;0.50;0.37;;;27.40;66.20;;;;;;5029635;28;20525;-83
2023/06/01 09:17:53;;;;;;;1.37;0.60;;;27.70;68.90;;;;;;5030117;28;20505;-79
2023/06/01 09:20:25;;;;;;;0.60;0.50;;;28.00;66.10;;;;;;5027656;28;20505;-81
2023/06/01 09:22:52;;;;;;;0.60;0.60;;;28.50;65.60;;;;;;5027087;28;20479;-83
2023/06/01 09:25:26;;;;;;;1.57;0.67;;;28.60;63.70;;;;;;5027452;28;20478;-83
2023/06/01 09:27:55;;;;;;;1.60;1.30;;;28.80;62.40;;;;;;5023214;28;20462;-82
2023/06/01 09:30:24;;;;;;;1.60;1.27;;;28.80;63.00;;;;;;5028787;28;20443;-83
2023/06/01 09:32:53;;;;;;;0.50;0.43;;;28.80;63.80;;;;;;5029920;28;20548;-84
2023/06/01 09:35:38;;;;;;;0.83;0.60;;;29.10;60.90;;;;;;5027236;28;20446;-83
2023/06/01 09:38:06;;;;;;;0.83;0.83;;;29.20;59.20;;;;;;5026697;28;20565;-81
2023/06/01 09:40:33;;;;;;;3.97;3.50;;;29.20;59.30;;;;;;5029779;28;20466;-82
2023/06/01 09:43:02;;;;;;;2.37;1.53;;;29.00;57.50;;;;;;5029343;28;20456;-82
2023/06/01 09:45:31;;;;;;;0.50;0.50;;;28.00;58.10;;;;;;5026161;28;20847;-84
2023/06/01 09:48:17;;;;;;;0.60;0.60;;;27.50;62.00;;;;;;5026050;28;20554;-83
2023/06/01 09:50:44;;;;;;;2.50;2.13;;;28.00;62.30;;;;;;5019613;28;20842;-81
2023/06/01 09:53:10;;;;;;;1.23;1.13;;;28.30;59.80;;;;;;5072654;22;20587;-81
2023/06/01 09:55:57;;;;;;;5.90;2.00;;;28.60;60.70;;;;;;4995878;28;20432;-84
2023/06/01 09:58:25;;;;;;;0.93;0.93;;;28.50;58.30;;;;;;5001118;28;20521;-83
2023/06/01 10:00:53;;;;;;;0.70;0.70;;;29.20;59.90;;;;;;4997199;28;20444;-83
2023/06/01 10:03:21;;;;;;;0.50;0.47;;;29.80;59.70;;;;;;5008398;28;20505;-82
2023/06/01 10:05:49;;;;;;;0.90;0.70;;;29.70;56.50;;;;;;5015537;28;20474;-82
2023/06/01 10:08:17;;;;;;;0.50;0.40;;;29.80;58.40;;;;;;5015050;28;20444;-83
2023/06/01 10:10:46;;;;;;;1.13;1.03;;;30.20;55.90;;;;;;5016275;28;20443;-82
2023/06/01 10:13:13;;;;;;;8.23;1.83;;;30.20;56.70;;;;;;5016033;28;20493;-83
2023/06/01 10:15:42;;;;;;;0.70;0.70;;;30.10;56.50;;;;;;5015825;28;20442;-82
2023/06/01 10:18:09;;;;;;;0.60;0.50;;;29.80;57.40;;;;;;5015984;28;20454;-83
2023/06/01 10:20:37;;;;;;;0.60;0.43;;;29.50;56.80;;;;;;5015930;28;20927;-82
2023/06/01 10:23:05;;;;;;;1.57;0.70;;;29.70;57.20;;;;;;5016523;28;20574;-83
2023/06/01 10:25:37;;;;;;;0.63;0.63;;;29.90;56.80;;;;;;5007534;28;20474;-83
2023/06/01 10:28:08;;;;;;;2.77;0.80;;;30.40;57.00;;;;;;5016467;28;20458;-83
2023/06/01 10:30:34;;;;;;;0.50;0.30;;;30.70;56.00;;;;;;5008297;28;20443;-83
2023/06/01 10:33:03;;;;;;;0.80;0.67;;;31.00;55.60;;;;;;5015760;28;20458;-82
2023/06/01 10:36:00;;;;;;;0.77;0.60;;;31.10;53.80;;;;;;5016449;28;20510;-83
2023/06/01 10:38:27;;;;;;;3.07;1.53;;;31.10;54.20;;;;;;5020704;28;20451;-83
2023/06/01 10:41:14;;;;;;;0.50;0.30;;;31.00;52.30;;;;;;5020880;28;20997;-82
2023/06/01 10:43:41;;;;;;;0.50;0.30;;;31.40;54.60;;;;;;5013579;28;20530;-83
2023/06/01 10:46:40;;;;;;;1.00;0.80;;;31.90;53.50;;;;;;5020430;28;20545;-81
2023/06/01 10:49:09;;;;;;;1.10;0.60;;;32.10;52.90;;;;;;5020875;28;20447;-80
2023/06/01 10:51:36;;;;;;;0.53;0.53;;;32.10;51.70;;;;;;5012567;28;20465;-83
2023/06/01 10:54:26;;;;;;;0.50;0.50;;;31.70;51.00;;;;;;5020491;28;20482;-82
2023/06/01 10:57:21;;;;;;;0.50;0.30;;;32.00;53.20;;;;;;5015015;28;20451;-82
2023/06/01 11:00:10;;;;;;;0.50;0.40;;;32.40;52.90;;;;;;5013636;28;20455;-81
2023/06/01 11:02:44;;;;;;;0.60;0.60;;;32.70;51.60;;;;;;5012822;28;20994;-82
2023/06/01 11:05:38;;;;;;;0.60;0.60;;;32.80;51.20;;;;;;5021938;28;20450;-80
2023/06/01 11:08:05;;;;;;;0.50;0.33;;;32.80;51.60;;;;;;5022319;28;20471;-83
2023/06/01 11:10:59;;;;;;;0.63;0.63;;;32.30;52.10;;;;;;5020485;28;20451;-82
2023/06/01 11:13:27;;;;;;;0.90;0.50;;;32.20;51.30;;;;;;5019887;28;20549;-82
2023/06/01 11:16:28;;;;;;;2.93;1.00;;;31.70;51.50;;;;;;5019949;28;20439;-82
2023/06/01 11:18:57;;;;;;;1.10;1.00;;;32.00;52.30;;;;;;5014305;28;20454;-82
2023/06/01 11:21:27;;;;;;;0.50;0.40;;;32.20;50.40;;;;;;5019345;28;20455;-82
2023/06/01 11:23:56;;;;;;;0.50;0.40;;;31.90;52.20;;;;;;5019948;28;20707;-82
2023/06/01 11:26:25;;;;;;;0.50;0.40;;;32.10;54.10;;;;;;5019685;28;20479;-83
2023/06/01 11:28:53;;;;;;;0.50;0.40;;;32.40;52.00;;;;;;5020553;28;20932;-82
2023/06/01 11:31:21;;;;;;;0.50;0.40;;;32.30;52.10;;;;;;5019822;28;20444;-81
2023/06/01 11:33:52;;;;;;;0.50;0.30;;;32.60;51.80;;;;;;5019554;28;20853;-82
2023/06/01 11:36:23;;;;;;;0.50;0.30;;;32.60;52.40;;;;;;5019579;28;20482;-82
2023/06/01 11:38:52;;;;;;;0.50;0.40;;;32.40;52.10;;;;;;5019583;28;21038;-83
2023/06/01 11:41:22;;;;;;;0.60;0.57;;;32.20;53.90;;;;;;5019460;28;20450;-82
2023/06/01 11:43:55;;;;;;;0.50;0.30;;;32.60;52.40;;;;;;5019503;28;20466;-82
2023/06/01 11:46:22;;;;;;;0.53;0.50;;;32.90;52.20;;;;;;5019802;28;20475;-81
2023/06/01 11:49:01;;;;;;;0.50;0.40;;;33.30;52.00;;;;;;5018476;28;20452;-82
2023/06/01 11:51:29;;;;;;;0.50;0.30;;;33.10;52.00;;;;;;5019432;28;20505;-83
2023/06/01 11:53:57;;;;;;;0.50;0.30;;;32.90;50.70;;;;;;5019515;28;20473;-82
2023/06/01 11:56:30;;;;;;;0.50;0.30;;;32.70;51.80;;;;;;5018480;28;20443;-83
2023/06/01 11:59:00;;;;;;;0.50;0.47;;;32.80;51.40;;;;;;5019112;28;20448;-82
2023/06/01 12:01:28;;;;;;;0.57;0.57;;;33.00;50.70;;;;;;5019566;28;20448;-83
2023/06/01 12:03:56;;;;;;;0.50;0.40;;;33.30;52.30;;;;;;5019022;28;20466;-83
2023/06/01 12:06:25;;;;;;;2.77;1.30;;;33.10;51.00;;;;;;5018665;28;20541;-83
2023/06/01 12:08:52;;;;;;;0.50;0.30;;;33.30;50.10;;;;;;5019606;28;20932;-80
2023/06/01 12:11:22;;;;;;;0.50;0.40;;;32.00;52.10;;;;;;5019647;28;20447;-81
2023/06/01 12:13:49;;;;;;;1.60;1.50;;;32.00;52.30;;;;;;5020379;28;20467;-81
2023/06/01 12:16:17;;;;;;;1.07;0.73;;;32.30;52.50;;;;;;5019390;28;20431;-83
2023/06/01 12:18:44;;;;;;;0.77;0.77;;;32.40;52.80;;;;;;5018574;28;20493;-83
2023/06/01 12:21:12;;;;;;;0.50;0.30;;;32.40;51.50;;;;;;5018157;28;20447;-79
2023/06/01 12:23:39;;;;;;;1.00;1.00;;;32.60;52.30;;;;;;5018588;28;20467;-82
2023/06/01 12:26:06;;;;;;;0.53;0.50;;;32.10;52.30;;;;;;5018915;28;20486;-82
2023/06/01 12:28:52;;;;;;;0.73;0.73;;;32.20;53.00;;;;;;5018020;28;20462;-81
2023/06/01 12:31:19;;;;;;;0.67;0.60;;;31.90;52.00;;;;;;5019613;28;20455;-82
2023/06/01 12:33:48;;;;;;;3.07;1.67;;;32.00;54.20;;;;;;5018414;28;20497;-82
2023/06/01 12:36:31;;;;;;;0.50;0.30;;;31.80;52.10;;;;;;5018220;28;20435;-81
2023/06/01 12:38:59;;;;;;;0.60;0.60;;;31.70;53.60;;;;;;5018492;28;20443;-82
2023/06/01 12:41:27;;;;;;;0.97;0.70;;;31.90;53.30;;;;;;5018470;28;20470;-82
2023/06/01 12:43:55;;;;;;;0.50;0.30;;;32.10;52.50;;;;;;5018128;28;20473;-82
2023/06/01 12:46:23;;;;;;;0.70;0.70;;;32.10;51.70;;;;;;5018403;28;20503;-82
2023/06/01 12:48:52;;;;;;;0.50;0.30;;;32.10;53.40;;;;;;5018113;28;20954;-82
2023/06/01 12:51:19;;;;;;;0.50;0.30;;;32.60;52.20;;;;;;5018178;28;20455;-81
2023/06/01 12:53:47;;;;;;;0.40;0.30;;;32.60;51.10;;;;;;5017886;28;20475;-82
2023/06/01 12:56:15;;;;;;;0.70;0.63;;;32.40;51.20;;;;;;5017730;28;20452;-82